• Join FlightAware (Why Join?)
  • Login
  • US Flag 
09:49AM EDT


 

Airport Tracker/Info


-or-


 

Live Flight TrackerFlight Track Log ✈ KAP320 ✈ 12-Sep-2013 ✈ KBOS - KACK

Flight Track Log - Related Links

Times and Time Zones

All times are in EDT time to prevent confusion due to time zone crossing. See the KAP320 flight status page for this flight to view local times or setup timezone preferences in your user account.

Time Position Orientation Groundspeed Altitude Reporting Facility
EDT Latitude Longitude Course Direction KTS MPH feet Rate Location/Type
07:22PM 42.3478 -70.9605 114° Southeast  Level FlightAware Approximate
07:23PM 42.3163 -70.9341 124° Southeast  Level Estimated
07:24PM 42.3031 -70.8872 111° Southeast  Level FlightAware Approximate
07:25PM 42.2900 -70.8402 111° Southeast  Level FlightAware Approximate
07:25PM 42.3500 -71.0167 102° East 38 44 600  Level KA90
07:25PM 42.3500 -71.0333 270° West 96 110 1,000 540 Climbing KA90
07:26PM 42.2577 -70.8155 109° East  Level Estimated
07:26PM 42.3333 -71.0667 236° Southwest 93 107 1,500  Level KA90
07:27PM 42.2254 -70.7908 114° Southeast  Level Estimated
07:27PM 42.3000 -71.0833 200° South 98 113 1,900  Level KA90
07:28PM 42.1931 -70.7661 116° Southeast  Level Estimated
07:28PM 42.2833 -71.1000 216° Southwest 110 127 2,300  Level KA90
07:29PM 42.1855 -70.7170 102° East  Level FlightAware Approximate
07:30PM 42.1779 -70.6680 102° East  Level FlightAware Approximate
07:30PM 42.2500 -71.0833 160° South 115 132 2,800  Level KA90
07:31PM 42.1703 -70.6190 102° East  Level FlightAware Approximate
07:31PM 42.2167 -71.0500 143° Southeast 122 140 3,300  Level KA90
07:32PM 42.2000 -71.0333 143° Southeast 118 136 3,800 480 Climbing KA90
07:33PM 42.1667 -70.9833 132° Southeast 150 173 4,300 420 Climbing KA90
07:34PM 42.1833 -70.9333 66° East 157 181 4,700 300 Climbing KA90
07:35PM 42.1667 -70.8667 109° East 169 194 5,000 120 Climbing KA90
07:35PM 42.1500 -70.8500 143° Southeast 153 176 5,000  Level KA90
07:36PM 42.1167 -70.8167 143° Southeast 151 174 5,000  Level KA90
07:38PM 42.1141 -70.7510 93° East  Level FlightAware Approximate
07:45PM 42.0803 -70.3127 107° East  Level FlightAware Approximate
07:46PM 42.0669 -70.2537 107° East  Level FlightAware Approximate
07:47PM 42.0535 -70.1948 107° East  Level FlightAware Approximate
07:48PM 42.0401 -70.1358 107° East  Level FlightAware Approximate
07:49PM 42.0266 -70.0770 107° East  Level FlightAware Approximate
07:50PM 42.0048 -70.0333 180° South  Level FlightAware Approximate
07:51PM 41.9591 -70.0333 180° South  Level FlightAware Approximate
07:52PM 41.9133 -70.0333 180° South  Level FlightAware Approximate
07:53PM 41.8676 -70.0333 180° South  Level FlightAware Approximate
07:54PM 41.8218 -70.0333 180° South  Level FlightAware Approximate
07:55PM 41.7761 -70.0333 180° South  Level FlightAware Approximate
07:56PM 41.7303 -70.0333 180° South  Level FlightAware Approximate
07:57PM 41.6846 -70.0333 180° South  Level FlightAware Approximate
07:58PM 41.6388 -70.0333 180° South  Level FlightAware Approximate
07:59PM 41.5931 -70.0347 189° South  Level FlightAware Approximate
08:00PM 41.5479 -70.0438 189° South  Level FlightAware Approximate
08:01PM 41.5025 -70.0500 180° South  Level FlightAware Approximate
08:02PM 41.4567 -70.0500 180° South  Level FlightAware Approximate
08:03PM 41.4110 -70.0500 180° South  Level FlightAware Approximate
08:04PM 41.3652 -70.0500 180° South  Level FlightAware Approximate
08:05PM 41.3195 -70.0500 180° South  Level FlightAware Approximate
08:06PM 41.2737 -70.0500 180° South  Level FlightAware Approximate
08:07PM 41.2500 -70.0500 180° South  Level FlightAware Approximate
08:08PM 41.2530 -70.0599 180° South  Level Estimated
08:09PM 41.2530 -70.0599 180° South  Level Estimated